Time;durP1;ratioP1;P1;durP2;ratioP2;P2;SDS_P1;SDS_P2;PMS_P1;PMS_P2;Temp;Humidity;BMP_temperature;BMP_pressure;BME280_temperature;BME280_humidity;BME280_pressure;Samples;Min_cycle;Max_cycle;Signal;HPM_P1;HPM_P2
2022/08/29 00:02:23;;;;;;;5.85;1.73;;;;;;;;;;5090747;28;20052;-68
2022/08/29 00:04:50;;;;;;;1.92;1.30;;;;;;;;;;5090757;28;20044;-69
2022/08/29 00:07:16;;;;;;;3.47;1.70;;;;;;;;;;5078343;28;20485;-69
2022/08/29 00:09:43;;;;;;;4.10;1.60;;;;;;;;;;5085395;28;20082;-69
2022/08/29 00:12:09;;;;;;;3.95;1.70;;;;;;;;;;5091742;28;20056;-69
2022/08/29 00:14:35;;;;;;;2.63;1.60;;;;;;;;;;5090911;28;20052;-69
2022/08/29 00:17:02;;;;;;;4.32;1.98;;;;;;;;;;5070665;28;20075;-69
2022/08/29 00:19:28;;;;;;;3.53;1.80;;;;;;;;;;5083963;28;20055;-69
2022/08/29 00:21:54;;;;;;;3.83;1.98;;;;;;;;;;5089859;28;20053;-69
2022/08/29 00:24:21;;;;;;;3.85;1.80;;;;;;;;;;5091183;28;20467;-69
2022/08/29 00:26:47;;;;;;;5.43;1.58;;;;;;;;;;5089429;28;20053;-70
2022/08/29 00:29:13;;;;;;;3.40;2.08;;;;;;;;;;5087366;28;20060;-70
2022/08/29 00:31:40;;;;;;;5.38;1.70;;;;;;;;;;5084306;28;20089;-69
2022/08/29 00:34:06;;;;;;;4.72;2.22;;;;;;;;;;5073261;28;20060;-69
2022/08/29 00:36:32;;;;;;;4.20;1.80;;;;;;;;;;5070550;28;20050;-70
2022/08/29 00:38:59;;;;;;;5.85;1.80;;;;;;;;;;5069979;28;20452;-70
2022/08/29 00:41:25;;;;;;;5.63;1.83;;;;;;;;;;5099923;28;20059;-69
2022/08/29 00:43:51;;;;;;;3.75;1.75;;;;;;;;;;5090883;28;20522;-69
2022/08/29 00:46:33;;;;;;;3.53;1.50;;;;;;;;;;5083858;28;20064;-69
2022/08/29 00:49:04;;;;;;;3.03;1.45;;;;;;;;;;5074036;28;20052;-69
2022/08/29 00:51:30;;;;;;;3.75;2.05;;;;;;;;;;5082103;28;20052;-69
2022/08/29 00:53:58;;;;;;;3.65;1.85;;;;;;;;;;5070202;28;20049;-69
2022/08/29 00:56:25;;;;;;;2.42;1.63;;;;;;;;;;5076778;28;20064;-69
2022/08/29 00:58:57;;;;;;;3.85;1.40;;;;;;;;;;5077433;28;20049;-69
2022/08/29 01:01:24;;;;;;;4.30;1.73;;;;;;;;;;5077614;28;20063;-69
2022/08/29 01:03:51;;;;;;;4.35;1.60;;;;;;;;;;5086307;27;20094;-70
2022/08/29 01:06:18;;;;;;;3.47;1.80;;;;;;;;;;5086067;28;21033;-69
2022/08/29 01:08:44;;;;;;;6.05;1.90;;;;;;;;;;5080847;28;20056;-69
2022/08/29 01:13:58;;;;;;;2.55;1.60;;;;;;;;;;5089314;28;20125;-69
2022/08/29 01:16:25;;;;;;;4.85;1.55;;;;;;;;;;5079079;28;20412;-70
2022/08/29 01:18:53;;;;;;;4.40;1.50;;;;;;;;;;5073707;28;20056;-69
2022/08/29 01:21:20;;;;;;;6.05;2.42;;;;;;;;;;5073417;28;20052;-69
2022/08/29 01:23:46;;;;;;;2.60;2.08;;;;;;;;;;5080665;28;20059;-69
2022/08/29 01:26:12;;;;;;;4.93;1.90;;;;;;;;;;5091696;28;20060;-69
2022/08/29 01:28:41;;;;;;;4.50;2.22;;;;;;;;;;5073448;28;20067;-69
2022/08/29 01:31:15;;;;;;;5.05;2.30;;;;;;;;;;5090638;28;20053;-69
2022/08/29 01:34:01;;;;;;;10.40;2.72;;;;;;;;;;5089005;28;20057;-69
2022/08/29 01:36:32;;;;;;;5.40;2.00;;;;;;;;;;5084527;28;20060;-69
2022/08/29 01:38:59;;;;;;;8.20;2.92;;;;;;;;;;5085236;28;20054;-69
2022/08/29 01:41:26;;;;;;;7.75;2.95;;;;;;;;;;5077332;27;20064;-69
2022/08/29 01:43:54;;;;;;;7.28;2.92;;;;;;;;;;5075071;28;20055;-69
2022/08/29 01:46:31;;;;;;;3.08;2.28;;;;;;;;;;5091392;28;20063;-69
2022/08/29 01:48:59;;;;;;;10.15;2.90;;;;;;;;;;5089452;28;20060;-69
2022/08/29 01:51:26;;;;;;;5.10;2.42;;;;;;;;;;5087898;28;20541;-70
2022/08/29 01:53:52;;;;;;;3.83;2.70;;;;;;;;;;5087261;28;20432;-69
2022/08/29 01:56:20;;;;;;;5.57;2.30;;;;;;;;;;5092629;28;20572;-70
2022/08/29 01:58:48;;;;;;;5.75;2.63;;;;;;;;;;5094219;27;20048;-69
2022/08/29 02:01:16;;;;;;;4.55;2.47;;;;;;;;;;5075750;28;20834;-69
2022/08/29 02:03:44;;;;;;;6.03;3.38;;;;;;;;;;5093851;28;20052;-69
2022/08/29 02:06:10;;;;;;;3.83;2.05;;;;;;;;;;5081014;28;20060;-69
2022/08/29 02:08:37;;;;;;;6.63;2.75;;;;;;;;;;5077040;28;20083;-69
2022/08/29 02:11:08;;;;;;;4.15;2.63;;;;;;;;;;5097205;27;20201;-69
2022/08/29 02:13:35;;;;;;;4.85;2.67;;;;;;;;;;5092915;28;20511;-69
2022/08/29 02:16:02;;;;;;;6.22;3.17;;;;;;;;;;5079572;28;20063;-69
2022/08/29 02:18:29;;;;;;;6.97;2.60;;;;;;;;;;5072604;28;20056;-69
2022/08/29 02:20:55;;;;;;;4.45;2.33;;;;;;;;;;5083828;28;21930;-69
2022/08/29 02:23:21;;;;;;;3.40;1.67;;;;;;;;;;5082211;28;20061;-69
2022/08/29 02:25:56;;;;;;;5.45;2.10;;;;;;;;;;5079931;28;20127;-69
2022/08/29 02:28:22;;;;;;;7.05;2.33;;;;;;;;;;5078071;28;20065;-69
2022/08/29 02:30:53;;;;;;;2.65;1.80;;;;;;;;;;5082223;28;20432;-68
2022/08/29 02:33:22;;;;;;;5.03;2.33;;;;;;;;;;5072524;28;20107;-69
2022/08/29 02:35:48;;;;;;;3.03;1.80;;;;;;;;;;5072430;28;20063;-69
2022/08/29 02:38:15;;;;;;;4.68;1.98;;;;;;;;;;5081477;28;20106;-69
2022/08/29 02:40:42;;;;;;;5.50;2.20;;;;;;;;;;5075556;28;20100;-69
2022/08/29 02:43:09;;;;;;;4.68;1.95;;;;;;;;;;5073549;28;20055;-69
2022/08/29 02:45:36;;;;;;;5.72;1.88;;;;;;;;;;5089880;28;20056;-69
2022/08/29 02:48:02;;;;;;;4.43;3.00;;;;;;;;;;5080557;28;20053;-70
2022/08/29 02:50:29;;;;;;;4.97;1.95;;;;;;;;;;5083285;28;20163;-69
2022/08/29 02:52:55;;;;;;;4.82;2.20;;;;;;;;;;5092480;28;20057;-69
2022/08/29 02:55:22;;;;;;;5.65;2.00;;;;;;;;;;5092022;28;20052;-69
2022/08/29 02:57:49;;;;;;;3.25;2.00;;;;;;;;;;5091397;28;20053;-69
2022/08/29 03:00:17;;;;;;;4.85;2.40;;;;;;;;;;5083936;28;20059;-69
2022/08/29 03:02:44;;;;;;;4.28;2.13;;;;;;;;;;5072482;28;20057;-69
2022/08/29 03:05:10;;;;;;;3.53;2.17;;;;;;;;;;5087261;28;20055;-69
2022/08/29 03:07:36;;;;;;;3.40;2.00;;;;;;;;;;5091783;28;20114;-69
2022/08/29 03:10:03;;;;;;;4.47;2.28;;;;;;;;;;5090615;28;20967;-69
2022/08/29 03:12:30;;;;;;;2.58;1.92;;;;;;;;;;5084040;28;20048;-69
2022/08/29 03:14:57;;;;;;;4.70;2.30;;;;;;;;;;5090184;28;20061;-69
2022/08/29 03:17:24;;;;;;;5.03;2.90;;;;;;;;;;5088034;28;20059;-69
2022/08/29 03:19:50;;;;;;;4.93;2.10;;;;;;;;;;5091280;28;20052;-68
2022/08/29 03:22:16;;;;;;;3.78;2.10;;;;;;;;;;5091228;28;20063;-69
2022/08/29 03:24:43;;;;;;;2.42;1.80;;;;;;;;;;5076345;28;20052;-69
2022/08/29 03:27:09;;;;;;;7.60;2.40;;;;;;;;;;5106654;27;20067;-68
2022/08/29 03:29:37;;;;;;;7.22;2.10;;;;;;;;;;5090413;28;20095;-68
2022/08/29 03:32:04;;;;;;;5.30;2.33;;;;;;;;;;5104776;28;20053;-69
2022/08/29 03:34:30;;;;;;;4.32;2.30;;;;;;;;;;5090110;28;20048;-69
2022/08/29 03:36:57;;;;;;;6.57;2.40;;;;;;;;;;5072030;28;20053;-69
2022/08/29 03:39:23;;;;;;;5.57;2.08;;;;;;;;;;5072567;28;20053;-69
2022/08/29 03:41:49;;;;;;;9.32;2.67;;;;;;;;;;5087917;28;20056;-68
2022/08/29 03:44:16;;;;;;;5.18;2.08;;;;;;;;;;5071587;28;20057;-68
2022/08/29 03:46:42;;;;;;;3.42;1.80;;;;;;;;;;5076007;28;20055;-69
2022/08/29 03:49:09;;;;;;;6.10;3.03;;;;;;;;;;5072001;28;20520;-69
2022/08/29 03:51:37;;;;;;;4.70;2.30;;;;;;;;;;5081915;28;20052;-69
2022/08/29 03:54:03;;;;;;;4.30;2.30;;;;;;;;;;5090105;28;20052;-69
2022/08/29 03:56:30;;;;;;;7.03;2.53;;;;;;;;;;5079021;28;20100;-69
2022/08/29 03:58:57;;;;;;;5.78;2.40;;;;;;;;;;5089186;28;20135;-69
2022/08/29 04:01:25;;;;;;;6.75;2.50;;;;;;;;;;5090934;28;20484;-69
2022/08/29 04:03:52;;;;;;;5.45;2.00;;;;;;;;;;5085934;28;20049;-68
2022/08/29 04:06:18;;;;;;;3.10;2.08;;;;;;;;;;5088109;28;20057;-69
2022/08/29 04:08:48;;;;;;;5.25;1.80;;;;;;;;;;5073026;28;20049;-69
2022/08/29 04:11:16;;;;;;;6.20;2.30;;;;;;;;;;5087230;28;20052;-69
2022/08/29 04:13:42;;;;;;;5.68;2.17;;;;;;;;;;5081099;28;20064;-69
2022/08/29 04:16:13;;;;;;;11.18;2.28;;;;;;;;;;5085699;28;20051;-69
2022/08/29 04:18:39;;;;;;;5.68;2.10;;;;;;;;;;5070946;28;20136;-69
2022/08/29 04:21:07;;;;;;;3.00;1.90;;;;;;;;;;5083932;28;20055;-69
2022/08/29 04:23:34;;;;;;;5.45;2.10;;;;;;;;;;5080104;28;20053;-69
2022/08/29 04:26:01;;;;;;;4.95;2.70;;;;;;;;;;5072896;28;20068;-69
2022/08/29 04:28:47;;;;;;;8.40;2.40;;;;;;;;;;5088490;28;20504;-69
2022/08/29 04:31:18;;;;;;;4.90;2.10;;;;;;;;;;5081912;28;20051;-69
2022/08/29 04:33:45;;;;;;;5.88;2.08;;;;;;;;;;5087227;28;20088;-69
2022/08/29 04:36:12;;;;;;;7.03;2.15;;;;;;;;;;5077919;28;20057;-69
2022/08/29 04:38:40;;;;;;;4.82;1.90;;;;;;;;;;5092384;28;20056;-69
2022/08/29 04:41:07;;;;;;;6.13;2.65;;;;;;;;;;5089952;28;20517;-69
2022/08/29 04:43:33;;;;;;;4.10;1.73;;;;;;;;;;5083530;28;20064;-69
2022/08/29 04:45:59;;;;;;;4.30;1.73;;;;;;;;;;5083274;28;20053;-68
2022/08/29 04:48:27;;;;;;;8.13;2.22;;;;;;;;;;5074376;28;20057;-68
2022/08/29 04:50:55;;;;;;;2.78;1.80;;;;;;;;;;5073714;28;20052;-68
2022/08/29 04:53:22;;;;;;;4.15;2.33;;;;;;;;;;5073999;28;20049;-68
2022/08/29 04:56:02;;;;;;;8.18;1.98;;;;;;;;;;5082735;28;20068;-67
2022/08/29 04:58:29;;;;;;;1.90;1.55;;;;;;;;;;5090918;28;20054;-68
2022/08/29 05:00:55;;;;;;;4.65;2.08;;;;;;;;;;5085940;28;20139;-68
2022/08/29 05:03:23;;;;;;;3.55;1.73;;;;;;;;;;5094434;28;20048;-69
2022/08/29 05:05:55;;;;;;;6.25;2.22;;;;;;;;;;5095164;28;20063;-67
2022/08/29 05:08:22;;;;;;;5.53;2.33;;;;;;;;;;5087849;28;20160;-68
2022/08/29 05:10:48;;;;;;;6.93;2.28;;;;;;;;;;5073748;28;20052;-67
2022/08/29 05:13:14;;;;;;;3.22;1.80;;;;;;;;;;5080486;28;20088;-66
2022/08/29 05:15:41;;;;;;;9.30;2.65;;;;;;;;;;5085612;28;20075;-68
2022/08/29 05:18:07;;;;;;;4.95;2.85;;;;;;;;;;5079509;28;20099;-68
2022/08/29 05:20:34;;;;;;;8.65;2.88;;;;;;;;;;5088507;28;20550;-67
2022/08/29 05:23:00;;;;;;;7.63;2.40;;;;;;;;;;5118857;27;20055;-67
2022/08/29 05:25:26;;;;;;;2.80;2.03;;;;;;;;;;5093931;28;20058;-68
2022/08/29 05:27:52;;;;;;;7.68;2.08;;;;;;;;;;5092631;28;20063;-68
2022/08/29 05:30:19;;;;;;;6.75;2.40;;;;;;;;;;5078283;28;20508;-68
2022/08/29 05:33:00;;;;;;;6.50;2.45;;;;;;;;;;5086211;28;20063;-68
2022/08/29 05:35:26;;;;;;;5.43;2.17;;;;;;;;;;5092424;28;20499;-67
2022/08/29 05:37:53;;;;;;;4.68;1.98;;;;;;;;;;5086222;27;20069;-70
2022/08/29 05:40:32;;;;;;;5.25;2.03;;;;;;;;;;5087429;28;20059;-72
2022/08/29 05:42:59;;;;;;;6.93;2.33;;;;;;;;;;5089188;28;20048;-70
2022/08/29 05:45:25;;;;;;;3.97;2.05;;;;;;;;;;5089671;28;20052;-70
2022/08/29 05:47:51;;;;;;;6.47;2.83;;;;;;;;;;5092335;28;20057;-70
2022/08/29 05:50:18;;;;;;;3.83;2.13;;;;;;;;;;5091451;28;20053;-71
2022/08/29 05:52:44;;;;;;;6.88;2.20;;;;;;;;;;5092007;28;20056;-71
2022/08/29 05:55:12;;;;;;;5.95;2.35;;;;;;;;;;5093588;28;20057;-67
2022/08/29 05:57:38;;;;;;;10.82;2.80;;;;;;;;;;5093584;28;20060;-67
2022/08/29 06:00:05;;;;;;;6.80;2.40;;;;;;;;;;5083902;28;20049;-73
2022/08/29 06:02:32;;;;;;;5.50;2.05;;;;;;;;;;5080827;28;20071;-69
2022/08/29 06:04:59;;;;;;;4.50;2.20;;;;;;;;;;5092109;28;20487;-68
2022/08/29 06:07:25;;;;;;;8.63;2.78;;;;;;;;;;5093137;28;20096;-69
2022/08/29 06:09:52;;;;;;;6.78;2.78;;;;;;;;;;5093282;28;20044;-69
2022/08/29 06:12:19;;;;;;;9.90;2.45;;;;;;;;;;5091979;28;20518;-69
2022/08/29 06:14:49;;;;;;;10.85;2.55;;;;;;;;;;5093001;28;20159;-68
2022/08/29 06:17:17;;;;;;;6.57;2.55;;;;;;;;;;5088418;28;20382;-69
2022/08/29 06:19:44;;;;;;;6.35;2.50;;;;;;;;;;5077202;28;20539;-68
2022/08/29 06:22:11;;;;;;;10.95;3.60;;;;;;;;;;5083171;28;20519;-70
2022/08/29 06:24:38;;;;;;;7.10;2.47;;;;;;;;;;5088875;28;20059;-69
2022/08/29 06:27:04;;;;;;;4.93;2.88;;;;;;;;;;5089692;28;20056;-69
2022/08/29 06:29:31;;;;;;;11.68;3.53;;;;;;;;;;5092619;28;20060;-70
2022/08/29 06:32:03;;;;;;;10.88;2.38;;;;;;;;;;5091657;28;20057;-67
2022/08/29 06:34:30;;;;;;;7.47;2.70;;;;;;;;;;5074618;28;20630;-67
2022/08/29 06:36:57;;;;;;;5.63;2.33;;;;;;;;;;5086364;28;20049;-67
2022/08/29 06:39:23;;;;;;;9.95;2.63;;;;;;;;;;5097672;28;20049;-68
2022/08/29 06:41:49;;;;;;;7.03;2.90;;;;;;;;;;5089340;28;20048;-67
2022/08/29 06:44:17;;;;;;;7.18;2.72;;;;;;;;;;5093323;28;20044;-68
2022/08/29 06:46:47;;;;;;;4.90;2.65;;;;;;;;;;5091594;28;20048;-68
2022/08/29 06:49:15;;;;;;;5.90;3.20;;;;;;;;;;5075089;28;20053;-69
2022/08/29 06:51:43;;;;;;;5.70;2.90;;;;;;;;;;5103082;28;20048;-69
2022/08/29 06:54:12;;;;;;;3.20;2.15;;;;;;;;;;5085997;27;20087;-70
2022/08/29 06:56:39;;;;;;;6.65;2.65;;;;;;;;;;5082923;28;20052;-69
2022/08/29 06:59:07;;;;;;;5.10;2.78;;;;;;;;;;5090587;28;20056;-70
2022/08/29 07:01:34;;;;;;;7.10;2.88;;;;;;;;;;5092707;28;20979;-67
2022/08/29 07:04:01;;;;;;;5.28;2.40;;;;;;;;;;5088358;28;20045;-68
2022/08/29 07:06:28;;;;;;;16.58;2.72;;;;;;;;;;5092944;28;20072;-69
2022/08/29 07:08:55;;;;;;;5.30;2.70;;;;;;;;;;5091574;28;20044;-69
2022/08/29 07:11:22;;;;;;;5.38;2.78;;;;;;;;;;5123535;27;20546;-69
2022/08/29 07:13:49;;;;;;;6.03;2.80;;;;;;;;;;5108062;28;20137;-69
2022/08/29 07:16:17;;;;;;;8.15;2.67;;;;;;;;;;5090797;28;20480;-70
2022/08/29 07:18:44;;;;;;;9.20;2.75;;;;;;;;;;5095249;28;20535;-68
2022/08/29 07:21:15;;;;;;;8.07;3.10;;;;;;;;;;5071758;28;20591;-69
2022/08/29 07:23:45;;;;;;;8.18;2.97;;;;;;;;;;5071193;28;20476;-69
2022/08/29 07:26:14;;;;;;;8.18;2.50;;;;;;;;;;5083261;28;20135;-69
2022/08/29 07:28:40;;;;;;;5.05;2.55;;;;;;;;;;5091399;28;20056;-68
2022/08/29 07:31:14;;;;;;;6.28;2.55;;;;;;;;;;5091980;28;20084;-67
2022/08/29 07:33:40;;;;;;;5.72;2.10;;;;;;;;;;5092056;28;20057;-67
2022/08/29 07:36:07;;;;;;;5.65;2.45;;;;;;;;;;5092098;28;20055;-69
2022/08/29 07:38:33;;;;;;;11.10;3.10;;;;;;;;;;5090830;28;20509;-70
2022/08/29 07:41:02;;;;;;;7.28;2.72;;;;;;;;;;5107367;28;20519;-69
2022/08/29 07:43:29;;;;;;;5.15;2.78;;;;;;;;;;5090965;28;20048;-69
2022/08/29 07:45:56;;;;;;;6.28;2.13;;;;;;;;;;5078330;28;20092;-69
2022/08/29 07:48:23;;;;;;;7.68;3.10;;;;;;;;;;5091560;28;20056;-69
2022/08/29 07:50:50;;;;;;;10.30;3.22;;;;;;;;;;5091455;28;20048;-66
2022/08/29 07:53:16;;;;;;;6.68;2.38;;;;;;;;;;5086198;28;20063;-66
2022/08/29 07:55:43;;;;;;;9.80;2.70;;;;;;;;;;5071147;28;20053;-66
2022/08/29 07:58:09;;;;;;;7.85;2.22;;;;;;;;;;5089858;28;20053;-66
2022/08/29 08:00:36;;;;;;;6.45;2.65;;;;;;;;;;5074836;28;20057;-68
2022/08/29 08:03:02;;;;;;;5.40;2.70;;;;;;;;;;5091142;28;20057;-68
2022/08/29 08:05:29;;;;;;;6.80;2.80;;;;;;;;;;5071229;28;20143;-67
2022/08/29 08:07:55;;;;;;;9.45;2.25;;;;;;;;;;5072254;28;20409;-67
2022/08/29 08:10:22;;;;;;;5.15;2.60;;;;;;;;;;5090445;28;20055;-69
2022/08/29 08:12:48;;;;;;;8.70;2.55;;;;;;;;;;5093229;28;20048;-68
2022/08/29 08:15:15;;;;;;;6.18;2.47;;;;;;;;;;5086026;28;20057;-69
2022/08/29 08:17:41;;;;;;;5.32;2.65;;;;;;;;;;5093099;28;20052;-69
2022/08/29 08:20:10;;;;;;;7.07;2.90;;;;;;;;;;5094489;28;20059;-68
2022/08/29 08:22:36;;;;;;;7.68;2.72;;;;;;;;;;5085418;28;20056;-66
2022/08/29 08:25:03;;;;;;;8.85;2.60;;;;;;;;;;5080148;28;20088;-66
2022/08/29 08:27:30;;;;;;;8.05;2.90;;;;;;;;;;5082626;28;20056;-66
2022/08/29 08:29:56;;;;;;;8.38;2.78;;;;;;;;;;5086461;28;20059;-67
2022/08/29 08:32:25;;;;;;;9.15;2.75;;;;;;;;;;5105251;28;20566;-66
2022/08/29 08:34:57;;;;;;;4.82;2.75;;;;;;;;;;5094400;28;20059;-67
2022/08/29 08:37:24;;;;;;;3.95;2.47;;;;;;;;;;5094643;28;20063;-68
2022/08/29 08:39:56;;;;;;;5.05;3.13;;;;;;;;;;5091686;28;20075;-67
2022/08/29 08:42:41;;;;;;;5.30;2.83;;;;;;;;;;5093814;28;20500;-67
2022/08/29 08:45:07;;;;;;;9.02;2.58;;;;;;;;;;5086356;28;20057;-65
2022/08/29 08:47:38;;;;;;;4.05;2.15;;;;;;;;;;5093866;28;20052;-65
2022/08/29 08:50:14;;;;;;;6.45;2.30;;;;;;;;;;5100071;28;20049;-66
2022/08/29 08:52:45;;;;;;;7.43;2.40;;;;;;;;;;5085142;28;20063;-66
2022/08/29 08:55:18;;;;;;;7.45;2.55;;;;;;;;;;5087613;28;20504;-67
2022/08/29 08:57:48;;;;;;;6.35;2.38;;;;;;;;;;5093353;28;20055;-66
2022/08/29 09:00:16;;;;;;;8.15;2.70;;;;;;;;;;5094229;28;20052;-67
2022/08/29 09:03:01;;;;;;;7.25;2.33;;;;;;;;;;5093433;28;20052;-65
2022/08/29 09:05:40;;;;;;;5.97;2.10;;;;;;;;;;5093512;28;20059;-65
2022/08/29 09:08:20;;;;;;;4.90;2.05;;;;;;;;;;5074509;28;20111;-66
2022/08/29 09:11:06;;;;;;;5.57;2.50;;;;;;;;;;5073740;28;20195;-65
2022/08/29 09:13:34;;;;;;;5.20;2.50;;;;;;;;;;5073767;28;20059;-65
2022/08/29 09:16:04;;;;;;;8.02;2.25;;;;;;;;;;5080908;28;20057;-65
2022/08/29 09:18:36;;;;;;;4.82;1.83;;;;;;;;;;5091996;28;20045;-65
2022/08/29 09:21:13;;;;;;;4.20;1.90;;;;;;;;;;5101809;27;20052;-66
2022/08/29 09:24:00;;;;;;;4.80;2.45;;;;;;;;;;5080026;28;20054;-66
2022/08/29 09:26:27;;;;;;;7.95;3.28;;;;;;;;;;5093963;28;20490;-65
2022/08/29 09:28:53;;;;;;;4.72;2.88;;;;;;;;;;5093459;28;20056;-65
2022/08/29 09:31:23;;;;;;;9.52;2.03;;;;;;;;;;5078156;28;20049;-65
2022/08/29 09:33:51;;;;;;;9.35;2.45;;;;;;;;;;5073629;28;20489;-65
2022/08/29 09:36:36;;;;;;;5.10;2.15;;;;;;;;;;5088891;28;20059;-66
2022/08/29 09:39:15;;;;;;;7.22;2.20;;;;;;;;;;5073222;28;20045;-65
2022/08/29 09:41:41;;;;;;;5.57;1.90;;;;;;;;;;5074262;28;20060;-65
2022/08/29 09:44:12;;;;;;;4.30;2.35;;;;;;;;;;5073353;28;20049;-65
2022/08/29 09:46:39;;;;;;;3.92;2.28;;;;;;;;;;5091885;28;20059;-66
2022/08/29 09:49:05;;;;;;;4.22;2.15;;;;;;;;;;5092275;28;20056;-65
2022/08/29 09:51:39;;;;;;;7.18;2.58;;;;;;;;;;5093230;28;20045;-65
2022/08/29 09:54:10;;;;;;;5.22;2.15;;;;;;;;;;5079641;28;20524;-65
2022/08/29 09:56:39;;;;;;;4.57;2.20;;;;;;;;;;5073420;28;20053;-68
2022/08/29 09:59:38;;;;;;;6.80;2.25;;;;;;;;;;5085328;28;20053;-68
2022/08/29 10:02:08;;;;;;;4.50;2.00;;;;;;;;;;5050919;28;20049;-68
2022/08/29 10:04:38;;;;;;;5.72;2.25;;;;;;;;;;5074774;28;20052;-67
2022/08/29 10:07:17;;;;;;;3.40;2.28;;;;;;;;;;5072887;28;20076;-65
2022/08/29 10:09:51;;;;;;;3.22;1.98;;;;;;;;;;5083497;28;20048;-66
2022/08/29 10:12:22;;;;;;;5.83;1.97;;;;;;;;;;5090678;28;20053;-67
2022/08/29 10:14:52;;;;;;;4.75;1.92;;;;;;;;;;5090629;28;20395;-66
2022/08/29 10:20:27;;;;;;;4.18;1.85;;;;;;;;;;5090885;28;20526;-67
2022/08/29 10:23:16;;;;;;;3.60;1.63;;;;;;;;;;5091909;28;20067;-67
2022/08/29 10:25:42;;;;;;;3.97;2.00;;;;;;;;;;5079643;27;20064;-67
2022/08/29 10:28:21;;;;;;;9.27;2.40;;;;;;;;;;5072494;28;20057;-67
2022/08/29 10:31:03;;;;;;;10.63;2.63;;;;;;;;;;5092879;28;20143;-68
2022/08/29 10:33:35;;;;;;;4.45;1.88;;;;;;;;;;5092293;28;20051;-67
2022/08/29 10:36:14;;;;;;;5.82;2.03;;;;;;;;;;5080609;28;20057;-68
2022/08/29 10:38:50;;;;;;;6.72;2.22;;;;;;;;;;5072347;28;20059;-68
2022/08/29 10:41:34;;;;;;;4.05;1.75;;;;;;;;;;5073136;28;20053;-68
2022/08/29 10:44:08;;;;;;;3.13;1.88;;;;;;;;;;5072126;28;20056;-68
2022/08/29 10:46:35;;;;;;;3.92;1.80;;;;;;;;;;5071375;28;20057;-68
2022/08/29 10:49:20;;;;;;;3.70;1.50;;;;;;;;;;5072679;28;20041;-69
2022/08/29 10:51:52;;;;;;;4.45;2.17;;;;;;;;;;5072424;28;20060;-68
2022/08/29 10:54:39;;;;;;;3.05;1.75;;;;;;;;;;5088860;28;20049;-68
2022/08/29 10:57:06;;;;;;;6.53;3.20;;;;;;;;;;5082973;28;20480;-67
2022/08/29 10:59:44;;;;;;;5.60;2.00;;;;;;;;;;5091067;28;20055;-68
2022/08/29 11:02:20;;;;;;;4.30;2.10;;;;;;;;;;5093070;28;20056;-68
2022/08/29 11:04:52;;;;;;;6.07;2.03;;;;;;;;;;5091902;28;20059;-68
2022/08/29 11:07:21;;;;;;;7.45;1.90;;;;;;;;;;5078188;28;20057;-67
2022/08/29 11:09:54;;;;;;;4.50;2.20;;;;;;;;;;5124505;27;20053;-66
2022/08/29 11:12:25;;;;;;;7.18;1.85;;;;;;;;;;5085158;28;20507;-67
2022/08/29 11:14:57;;;;;;;7.47;3.08;;;;;;;;;;5091083;28;20048;-67
2022/08/29 11:17:30;;;;;;;9.68;2.45;;;;;;;;;;5086121;28;20970;-67
2022/08/29 11:20:00;;;;;;;3.55;1.75;;;;;;;;;;5089999;28;20056;-67
2022/08/29 11:22:29;;;;;;;5.95;2.05;;;;;;;;;;5088849;28;20049;-67
2022/08/29 11:25:00;;;;;;;5.22;2.00;;;;;;;;;;5086344;28;20055;-67
2022/08/29 11:27:50;;;;;;;4.10;1.77;;;;;;;;;;5091134;27;20056;-66
2022/08/29 11:30:21;;;;;;;6.95;2.35;;;;;;;;;;5090075;28;20048;-67
2022/08/29 11:33:00;;;;;;;3.05;1.65;;;;;;;;;;5092449;28;20139;-67
2022/08/29 11:35:45;;;;;;;5.63;2.05;;;;;;;;;;5092605;28;20056;-64
2022/08/29 11:38:20;;;;;;;6.72;2.00;;;;;;;;;;5091553;28;20057;-67
2022/08/29 11:40:55;;;;;;;4.32;1.88;;;;;;;;;;5091628;28;20056;-64
2022/08/29 11:43:43;;;;;;;2.20;1.50;;;;;;;;;;5075674;28;20509;-64
2022/08/29 11:46:10;;;;;;;3.28;1.65;;;;;;;;;;5074562;28;20060;-65
2022/08/29 11:48:37;;;;;;;3.85;1.70;;;;;;;;;;5082061;28;20088;-65
2022/08/29 11:51:30;;;;;;;4.43;1.65;;;;;;;;;;5071329;28;20053;-65
2022/08/29 11:54:16;;;;;;;5.88;2.70;;;;;;;;;;5077220;28;20052;-65
2022/08/29 11:56:42;;;;;;;6.28;2.45;;;;;;;;;;5070424;28;20489;-65
2022/08/29 11:59:09;;;;;;;5.10;1.73;;;;;;;;;;5089140;28;20075;-65
2022/08/29 12:01:35;;;;;;;5.10;1.90;;;;;;;;;;5092048;28;20053;-67
2022/08/29 12:04:03;;;;;;;7.25;1.88;;;;;;;;;;5092301;28;20049;-64
2022/08/29 12:06:33;;;;;;;3.90;1.90;;;;;;;;;;5091536;28;20131;-65
2022/08/29 12:09:12;;;;;;;5.53;2.22;;;;;;;;;;5089545;28;20053;-64
2022/08/29 12:11:57;;;;;;;6.15;1.85;;;;;;;;;;5077564;28;20049;-66
2022/08/29 12:14:28;;;;;;;3.50;2.10;;;;;;;;;;5089241;28;20144;-67
2022/08/29 12:17:02;;;;;;;3.15;1.33;;;;;;;;;;5090960;28;20063;-68
2022/08/29 12:19:47;;;;;;;4.47;1.63;;;;;;;;;;5091567;28;20048;-68
2022/08/29 12:22:39;;;;;;;4.57;1.70;;;;;;;;;;5090105;28;20510;-67
2022/08/29 12:25:28;;;;;;;4.68;2.10;;;;;;;;;;5069336;28;20865;-67
2022/08/29 12:27:54;;;;;;;2.78;1.60;;;;;;;;;;5090056;28;20063;-67
2022/08/29 12:30:21;;;;;;;4.05;1.40;;;;;;;;;;5089859;28;20052;-67
2022/08/29 12:32:55;;;;;;;2.63;1.67;;;;;;;;;;5090563;28;20423;-68
2022/08/29 12:35:38;;;;;;;4.53;1.83;;;;;;;;;;5091315;28;20435;-67
2022/08/29 12:38:12;;;;;;;5.43;2.10;;;;;;;;;;5091397;28;20083;-66
2022/08/29 12:40:53;;;;;;;4.72;1.40;;;;;;;;;;5089747;28;20071;-66
2022/08/29 12:43:26;;;;;;;2.92;1.48;;;;;;;;;;5091511;28;20426;-66
2022/08/29 12:45:52;;;;;;;5.07;1.65;;;;;;;;;;5089459;28;20044;-66
2022/08/29 12:48:23;;;;;;;7.03;2.08;;;;;;;;;;5090739;28;20488;-66
2022/08/29 12:50:49;;;;;;;3.20;1.70;;;;;;;;;;5090405;28;20056;-68
2022/08/29 12:53:32;;;;;;;4.25;1.83;;;;;;;;;;5091136;28;20045;-67
2022/08/29 12:55:59;;;;;;;4.95;1.88;;;;;;;;;;5090892;28;20057;-68
2022/08/29 12:58:37;;;;;;;6.20;1.95;;;;;;;;;;5091476;28;20057;-66
2022/08/29 13:01:06;;;;;;;6.32;2.13;;;;;;;;;;5093780;28;20048;-68
2022/08/29 13:03:32;;;;;;;4.93;1.70;;;;;;;;;;5094486;28;20957;-67
2022/08/29 13:06:10;;;;;;;5.90;1.92;;;;;;;;;;5089948;28;20186;-67
2022/08/29 13:08:37;;;;;;;4.85;1.83;;;;;;;;;;5094654;28;20056;-67
2022/08/29 13:11:08;;;;;;;3.42;1.98;;;;;;;;;;5087287;28;20049;-66
2022/08/29 13:13:34;;;;;;;2.78;1.70;;;;;;;;;;5092803;28;20048;-67
2022/08/29 13:16:03;;;;;;;3.15;1.80;;;;;;;;;;5091795;28;20059;-68
2022/08/29 13:18:30;;;;;;;3.90;1.80;;;;;;;;;;5092163;28;20063;-69
2022/08/29 13:21:08;;;;;;;4.32;1.80;;;;;;;;;;5094761;28;20111;-67
2022/08/29 13:23:37;;;;;;;5.00;2.00;;;;;;;;;;5091809;28;20053;-66
2022/08/29 13:26:09;;;;;;;4.10;2.45;;;;;;;;;;5080202;28;20502;-66
2022/08/29 13:28:44;;;;;;;5.95;2.03;;;;;;;;;;5090976;28;20061;-66
2022/08/29 13:31:11;;;;;;;4.38;1.70;;;;;;;;;;5090208;28;20546;-66
2022/08/29 13:33:39;;;;;;;7.28;2.25;;;;;;;;;;5089912;28;20055;-75
2022/08/29 13:36:27;;;;;;;3.88;1.88;;;;;;;;;;5092805;28;20053;-67
2022/08/29 13:39:12;;;;;;;4.07;1.70;;;;;;;;;;5094549;28;20074;-67
2022/08/29 13:41:38;;;;;;;6.07;1.92;;;;;;;;;;5083540;28;20051;-67
2022/08/29 13:44:05;;;;;;;4.15;1.88;;;;;;;;;;5092445;28;20131;-67
2022/08/29 13:46:32;;;;;;;3.58;2.00;;;;;;;;;;5091850;28;20056;-67
2022/08/29 13:48:59;;;;;;;6.38;2.08;;;;;;;;;;5077783;28;20057;-66
2022/08/29 13:51:27;;;;;;;5.43;1.85;;;;;;;;;;5091189;28;20052;-66
2022/08/29 13:53:54;;;;;;;3.42;1.83;;;;;;;;;;5089016;28;20049;-66
2022/08/29 13:56:21;;;;;;;6.70;1.98;;;;;;;;;;5087056;28;20059;-66
2022/08/29 13:58:48;;;;;;;6.53;2.50;;;;;;;;;;5082798;28;20489;-66
2022/08/29 14:01:14;;;;;;;5.75;2.20;;;;;;;;;;5084470;28;20488;-66
2022/08/29 14:04:01;;;;;;;3.55;1.90;;;;;;;;;;5087470;28;20057;-66
2022/08/29 14:06:47;;;;;;;3.25;1.75;;;;;;;;;;5091724;27;20504;-67
2022/08/29 14:09:17;;;;;;;5.38;2.08;;;;;;;;;;5077647;28;20053;-66
2022/08/29 14:11:43;;;;;;;2.58;1.40;;;;;;;;;;5088097;28;20049;-67
2022/08/29 14:14:10;;;;;;;4.43;1.80;;;;;;;;;;5087503;28;20482;-67
2022/08/29 14:16:36;;;;;;;3.05;1.60;;;;;;;;;;5083318;28;20056;-67
2022/08/29 14:19:02;;;;;;;2.70;1.20;;;;;;;;;;5073948;28;20052;-67
2022/08/29 14:21:29;;;;;;;2.88;1.80;;;;;;;;;;5080972;28;20052;-67
2022/08/29 14:23:55;;;;;;;3.15;1.88;;;;;;;;;;5079255;28;20052;-68
2022/08/29 14:26:21;;;;;;;3.88;1.75;;;;;;;;;;5092368;28;20052;-67
2022/08/29 14:28:47;;;;;;;3.13;1.80;;;;;;;;;;5092440;28;20064;-66
2022/08/29 14:31:14;;;;;;;3.78;1.83;;;;;;;;;;5093165;28;20522;-67
2022/08/29 14:33:40;;;;;;;2.58;1.60;;;;;;;;;;5074144;28;20061;-66
2022/08/29 14:36:07;;;;;;;5.15;1.75;;;;;;;;;;5072506;28;20064;-67
2022/08/29 14:38:33;;;;;;;5.95;2.00;;;;;;;;;;5072682;28;20099;-67
2022/08/29 14:40:59;;;;;;;3.13;1.60;;;;;;;;;;5082627;28;20941;-67
2022/08/29 14:43:25;;;;;;;2.78;1.50;;;;;;;;;;5084998;28;20056;-67
2022/08/29 14:45:52;;;;;;;2.05;1.40;;;;;;;;;;5092168;28;20502;-67
2022/08/29 14:48:18;;;;;;;5.72;1.60;;;;;;;;;;5092253;28;20052;-67
2022/08/29 14:50:44;;;;;;;6.03;2.05;;;;;;;;;;5084719;28;20537;-68
2022/08/29 14:53:11;;;;;;;5.32;1.88;;;;;;;;;;5086483;28;20090;-67
2022/08/29 14:55:38;;;;;;;3.15;2.00;;;;;;;;;;5091973;28;20119;-68
2022/08/29 14:58:04;;;;;;;6.40;1.75;;;;;;;;;;5092438;28;20049;-68
2022/08/29 15:00:32;;;;;;;2.95;1.75;;;;;;;;;;5091086;28;20052;-68
2022/08/29 15:03:00;;;;;;;2.58;1.70;;;;;;;;;;5085292;28;20053;-68
2022/08/29 15:05:26;;;;;;;3.55;1.45;;;;;;;;;;5090126;28;20052;-67